Time;durP1;ratioP1;P1;durP2;ratioP2;P2;SDS_P1;SDS_P2;PMS_P1;PMS_P2;Temp;Humidity;BMP_temperature;BMP_pressure;BME280_temperature;BME280_humidity;BME280_pressure;Samples;Min_cycle;Max_cycle;Signal;HPM_P1;HPM_P2
2023/11/08 00:00:22;;;;;;;0.40;0.40;;;6.30;99.90;;;;;;4939618;29;20495;-81
2023/11/08 00:02:49;;;;;;;0.40;0.30;;;6.30;99.90;;;;;;4939664;29;20451;-81
2023/11/08 00:05:16;;;;;;;0.30;0.30;;;6.30;99.90;;;;;;4939131;29;20491;-81
2023/11/08 00:07:43;;;;;;;0.40;0.40;;;6.20;99.90;;;;;;4939200;29;20455;-81
2023/11/08 00:10:12;;;;;;;0.80;0.70;;;6.20;99.90;;;;;;4939058;29;21003;-80
2023/11/08 00:12:39;;;;;;;2.70;0.40;;;6.20;99.90;;;;;;4939093;29;20966;-81
2023/11/08 00:15:08;;;;;;;0.50;0.50;;;6.20;99.90;;;;;;4939317;29;20808;-81
2023/11/08 00:17:36;;;;;;;0.37;0.37;;;6.20;99.90;;;;;;4939300;29;20514;-81
2023/11/08 00:20:03;;;;;;;0.67;0.67;;;6.20;99.90;;;;;;4939420;29;20483;-80
2023/11/08 00:22:30;;;;;;;0.40;0.30;;;6.30;99.90;;;;;;4939113;29;20870;-80
2023/11/08 00:24:57;;;;;;;0.40;0.37;;;6.30;99.90;;;;;;4939103;29;20451;-80
2023/11/08 00:27:23;;;;;;;0.40;0.40;;;6.30;99.90;;;;;;4938586;29;20451;-81
2023/11/08 00:29:50;;;;;;;0.50;0.30;;;6.30;99.90;;;;;;4939697;29;20473;-80
2023/11/08 00:32:21;;;;;;;8.23;0.50;;;6.40;99.90;;;;;;4944321;29;20458;-81
2023/11/08 00:34:48;;;;;;;0.30;0.30;;;6.50;99.90;;;;;;4937999;29;20913;-81
2023/11/08 00:37:14;;;;;;;0.60;0.60;;;6.50;99.90;;;;;;4937855;29;20543;-81
2023/11/08 00:39:42;;;;;;;0.70;0.50;;;6.60;99.90;;;;;;4937783;29;20465;-81
2023/11/08 00:42:09;;;;;;;0.40;0.30;;;6.70;99.90;;;;;;4938067;29;20467;-81
2023/11/08 00:44:36;;;;;;;0.60;0.60;;;6.70;99.90;;;;;;4937731;29;20545;-81
2023/11/08 00:47:03;;;;;;;0.40;0.40;;;6.80;99.90;;;;;;4938165;29;20483;-81
2023/11/08 00:49:31;;;;;;;1.13;0.40;;;6.70;99.90;;;;;;4938475;29;20522;-81
2023/11/08 00:51:59;;;;;;;0.60;0.60;;;6.70;99.90;;;;;;4938880;29;20443;-81
2023/11/08 00:54:26;;;;;;;2.40;1.07;;;6.60;99.90;;;;;;4938220;29;20980;-81
2023/11/08 00:56:53;;;;;;;0.63;0.30;;;6.60;99.90;;;;;;4938231;29;20514;-81
2023/11/08 00:59:20;;;;;;;0.60;0.50;;;6.50;99.90;;;;;;4937689;29;21010;-83
2023/11/08 01:01:47;;;;;;;0.40;0.40;;;6.50;99.90;;;;;;4938015;29;21015;-83
2023/11/08 01:04:14;;;;;;;0.30;0.30;;;6.40;99.90;;;;;;4938152;29;20498;-83
2023/11/08 01:06:42;;;;;;;0.67;0.67;;;6.40;99.90;;;;;;4937951;29;20458;-83
2023/11/08 01:09:10;;;;;;;0.50;0.30;;;6.30;99.90;;;;;;4937504;29;20466;-83
2023/11/08 01:11:38;;;;;;;0.40;0.40;;;6.20;99.90;;;;;;4938081;29;20510;-83
2023/11/08 01:14:05;;;;;;;0.57;0.40;;;6.00;99.90;;;;;;4938208;29;20506;-82
2023/11/08 01:16:32;;;;;;;0.50;0.37;;;5.90;99.90;;;;;;4937956;29;20998;-82
2023/11/08 01:18:59;;;;;;;0.50;0.50;;;5.80;99.90;;;;;;4938161;29;20471;-82
2023/11/08 01:21:26;;;;;;;0.50;0.50;;;5.80;99.90;;;;;;4937996;29;20499;-82
2023/11/08 01:23:54;;;;;;;0.60;0.43;;;5.80;99.90;;;;;;4938537;29;20495;-82
2023/11/08 01:26:22;;;;;;;0.80;0.40;;;5.70;99.90;;;;;;4939071;29;20534;-82
2023/11/08 01:28:48;;;;;;;0.30;0.30;;;5.70;99.90;;;;;;4938422;29;20467;-82
2023/11/08 01:31:15;;;;;;;0.30;0.30;;;5.60;99.90;;;;;;4938539;29;20792;-82
2023/11/08 01:33:42;;;;;;;0.70;0.30;;;5.60;99.90;;;;;;4938998;29;20454;-82
2023/11/08 01:36:09;;;;;;;0.40;0.40;;;5.50;99.90;;;;;;4939185;29;20454;-82
2023/11/08 01:38:36;;;;;;;0.40;0.40;;;5.50;99.90;;;;;;4938980;29;20455;-82
2023/11/08 01:41:04;;;;;;;0.50;0.40;;;5.60;99.90;;;;;;4938806;29;20482;-82
2023/11/08 01:43:32;;;;;;;3.67;0.53;;;5.50;99.90;;;;;;4938930;29;20444;-82
2023/11/08 01:46:05;;;;;;;1.47;0.50;;;5.50;99.90;;;;;;4938953;29;20513;-82
2023/11/08 01:48:33;;;;;;;1.33;0.30;;;5.50;99.90;;;;;;4938686;29;20475;-82
2023/11/08 01:51:00;;;;;;;1.33;0.67;;;5.50;99.90;;;;;;4938661;29;20443;-81
2023/11/08 01:53:28;;;;;;;0.90;0.40;;;5.50;99.90;;;;;;4938654;29;20524;-82
2023/11/08 01:55:55;;;;;;;1.77;0.40;;;5.50;99.90;;;;;;4938501;29;20439;-83
2023/11/08 01:58:24;;;;;;;0.30;0.30;;;5.50;99.90;;;;;;4938272;29;20543;-82
2023/11/08 02:00:52;;;;;;;0.77;0.30;;;5.60;99.90;;;;;;4938588;29;20494;-82
2023/11/08 02:03:19;;;;;;;0.60;0.30;;;5.50;99.90;;;;;;4938491;29;20468;-81
2023/11/08 02:05:46;;;;;;;0.40;0.40;;;5.50;99.90;;;;;;4938674;29;20455;-82
2023/11/08 02:08:13;;;;;;;0.30;0.30;;;5.50;99.90;;;;;;4938742;29;20941;-82
2023/11/08 02:10:40;;;;;;;0.30;0.30;;;5.50;99.90;;;;;;4938201;29;20446;-82
2023/11/08 02:13:07;;;;;;;0.40;0.30;;;5.50;99.90;;;;;;4938329;29;20451;-82
2023/11/08 02:15:41;;;;;;;0.40;0.40;;;5.50;99.90;;;;;;4939015;29;20507;-82
2023/11/08 02:18:08;;;;;;;0.30;0.30;;;5.60;99.90;;;;;;4938578;29;20435;-82
2023/11/08 02:20:35;;;;;;;0.40;0.30;;;5.60;99.90;;;;;;4941166;29;20493;-83
2023/11/08 02:23:01;;;;;;;0.40;0.40;;;5.60;99.90;;;;;;4942303;29;20487;-82
2023/11/08 02:25:30;;;;;;;0.30;0.30;;;5.70;99.90;;;;;;4942528;29;20462;-81
2023/11/08 02:27:57;;;;;;;0.40;0.40;;;5.70;99.90;;;;;;4942080;29;20793;-82
2023/11/08 02:30:24;;;;;;;0.70;0.50;;;5.60;99.90;;;;;;4942430;29;20462;-81
2023/11/08 02:32:51;;;;;;;0.30;0.20;;;5.60;99.90;;;;;;4942171;29;20443;-82
2023/11/08 02:35:17;;;;;;;0.73;0.37;;;5.60;99.90;;;;;;4941983;29;20458;-82
2023/11/08 02:37:46;;;;;;;1.37;0.87;;;5.70;99.90;;;;;;4942410;29;20459;-82
2023/11/08 02:40:13;;;;;;;0.37;0.37;;;5.70;99.90;;;;;;4951126;29;20463;-80
2023/11/08 02:42:42;;;;;;;0.40;0.30;;;5.80;99.90;;;;;;4939535;29;20549;-81
2023/11/08 02:45:10;;;;;;;2.30;0.30;;;5.80;99.90;;;;;;4939683;29;20450;-82
2023/11/08 02:47:37;;;;;;;0.40;0.40;;;5.80;99.90;;;;;;4939705;29;20443;-82
2023/11/08 02:50:05;;;;;;;0.30;0.30;;;5.80;99.90;;;;;;4939704;29;20881;-82
2023/11/08 02:52:32;;;;;;;0.60;0.60;;;5.70;99.90;;;;;;4939568;29;20439;-82
2023/11/08 02:54:59;;;;;;;1.00;0.60;;;5.70;99.90;;;;;;4939968;29;20439;-82
2023/11/08 02:57:27;;;;;;;0.40;0.30;;;5.70;99.90;;;;;;4940257;29;20457;-82
2023/11/08 02:59:55;;;;;;;0.40;0.40;;;5.70;99.90;;;;;;4939827;29;20459;-82
2023/11/08 03:02:22;;;;;;;1.23;0.50;;;5.60;99.90;;;;;;4939791;29;20487;-82
2023/11/08 03:04:49;;;;;;;0.77;0.33;;;5.70;99.90;;;;;;4939738;29;21011;-82
2023/11/08 03:07:16;;;;;;;0.30;0.30;;;5.70;99.90;;;;;;4940021;29;20800;-82
2023/11/08 03:09:43;;;;;;;0.30;0.30;;;5.70;99.90;;;;;;4939878;29;20475;-82
2023/11/08 03:12:09;;;;;;;0.40;0.40;;;5.70;99.90;;;;;;4939888;29;20451;-82
2023/11/08 03:14:36;;;;;;;0.40;0.40;;;5.70;99.90;;;;;;4939821;29;20783;-82
2023/11/08 03:17:04;;;;;;;0.87;0.40;;;5.70;99.90;;;;;;4940308;29;20451;-82
2023/11/08 08:53:28;;;;;;;0.40;0.40;;;13.30;99.90;;;;;;4936059;29;20487;-89
2023/11/08 08:55:55;;;;;;;1.17;0.50;;;14.00;99.90;;;;;;4937615;29;20860;-90
2023/11/08 08:58:22;;;;;;;1.03;0.37;;;14.00;99.90;;;;;;4937495;29;20461;-89
2023/11/08 09:00:48;;;;;;;0.80;0.50;;;14.30;99.90;;;;;;4937428;29;20476;-88
2023/11/08 09:03:16;;;;;;;0.40;0.40;;;14.80;99.90;;;;;;4937006;29;20494;-88
2023/11/08 09:05:43;;;;;;;0.40;0.40;;;15.50;99.90;;;;;;4936894;29;20512;-88
2023/11/08 09:08:10;;;;;;;0.50;0.50;;;16.50;99.90;;;;;;4937318;29;20458;-88
2023/11/08 09:10:38;;;;;;;0.47;0.47;;;17.40;99.90;;;;;;4939084;29;20463;-86
2023/11/08 09:13:05;;;;;;;0.57;0.57;;;18.50;99.90;;;;;;4940451;29;20443;-88
2023/11/08 09:15:32;;;;;;;0.50;0.50;;;18.90;99.90;;;;;;4940792;29;20471;-87
2023/11/08 09:17:59;;;;;;;0.43;0.40;;;18.70;99.90;;;;;;4943432;29;20446;-89
2023/11/08 09:20:26;;;;;;;0.40;0.37;;;18.40;99.90;;;;;;4944166;29;20486;-87
2023/11/08 09:22:53;;;;;;;1.37;0.40;;;18.40;99.90;;;;;;4940464;29;20490;-87
2023/11/08 09:25:19;;;;;;;0.60;0.40;;;18.60;99.90;;;;;;4940027;29;20936;-87
2023/11/08 09:27:47;;;;;;;0.73;0.43;;;19.00;99.90;;;;;;4981750;23;20489;-79
2023/11/08 09:30:14;;;;;;;0.90;0.70;;;19.00;99.90;;;;;;4975109;28;20449;-79
2023/11/08 09:32:41;;;;;;;0.50;0.40;;;19.00;99.90;;;;;;4975143;28;20787;-79
2023/11/08 09:35:09;;;;;;;0.50;0.40;;;18.80;99.90;;;;;;4975759;28;20476;-79
2023/11/08 09:37:37;;;;;;;0.50;0.50;;;18.60;99.90;;;;;;4975996;28;20512;-79
2023/11/08 09:40:07;;;;;;;0.50;0.50;;;18.10;99.90;;;;;;4975251;28;20469;-79
2023/11/08 09:42:33;;;;;;;0.73;0.50;;;17.20;99.90;;;;;;4975381;28;20544;-79
2023/11/08 09:45:03;;;;;;;0.47;0.40;;;16.10;99.90;;;;;;4976352;28;20449;-81
2023/11/08 09:47:33;;;;;;;0.40;0.40;;;15.10;99.90;;;;;;4976048;28;20478;-80
2023/11/08 09:50:00;;;;;;;0.43;0.40;;;14.20;99.90;;;;;;4976094;28;20433;-79
2023/11/08 09:52:27;;;;;;;0.40;0.40;;;14.00;99.90;;;;;;4975908;28;20435;-81
2023/11/08 09:54:54;;;;;;;0.40;0.30;;;13.80;99.90;;;;;;4975619;28;20445;-81
2023/11/08 09:57:23;;;;;;;1.27;0.80;;;13.60;99.90;;;;;;4975567;28;20484;-81
2023/11/08 09:59:50;;;;;;;0.40;0.30;;;12.90;99.90;;;;;;4975754;28;20437;-80
2023/11/08 10:02:19;;;;;;;1.47;0.50;;;12.90;99.90;;;;;;4975783;28;20485;-81
2023/11/08 10:04:46;;;;;;;0.70;0.50;;;12.70;99.90;;;;;;4975240;28;20457;-81
2023/11/08 10:07:13;;;;;;;0.40;0.40;;;12.70;99.90;;;;;;4974895;28;20471;-81
2023/11/08 10:09:40;;;;;;;0.47;0.40;;;12.60;99.90;;;;;;4975079;28;20984;-81
2023/11/08 10:12:08;;;;;;;1.53;0.50;;;12.60;99.90;;;;;;4975276;28;20437;-81
2023/11/08 10:14:37;;;;;;;0.70;0.43;;;12.30;99.90;;;;;;4975326;28;20546;-80
2023/11/08 10:17:04;;;;;;;1.17;0.60;;;12.10;99.90;;;;;;4975006;28;20815;-80
2023/11/08 10:19:44;;;;;;;0.87;0.40;;;12.10;99.90;;;;;;4975075;28;20477;-81
2023/11/08 10:22:19;;;;;;;0.80;0.50;;;12.20;99.90;;;;;;4975032;28;20564;-81
2023/11/08 10:24:54;;;;;;;0.80;0.33;;;12.30;99.90;;;;;;4975815;28;20417;-81
2023/11/08 10:27:22;;;;;;;0.50;0.40;;;12.20;99.90;;;;;;4974967;28;20535;-80
2023/11/08 10:29:50;;;;;;;0.40;0.40;;;12.20;99.90;;;;;;4975823;28;20537;-81
2023/11/08 10:32:20;;;;;;;1.03;0.57;;;12.00;99.90;;;;;;4974818;28;20544;-79
2023/11/08 10:34:49;;;;;;;0.53;0.40;;;12.00;99.90;;;;;;4974558;28;20437;-80
2023/11/08 10:37:24;;;;;;;0.40;0.40;;;11.80;99.90;;;;;;4974089;28;21102;-79
2023/11/08 10:39:52;;;;;;;0.40;0.30;;;11.60;99.90;;;;;;4974493;28;20445;-78
2023/11/08 10:42:20;;;;;;;0.50;0.50;;;11.60;99.90;;;;;;4978031;28;20481;-79
2023/11/08 10:44:47;;;;;;;2.10;0.40;;;11.80;99.90;;;;;;4978088;28;20492;-80
2023/11/08 10:47:15;;;;;;;3.70;0.50;;;11.70;99.90;;;;;;4977855;28;20466;-80
2023/11/08 10:49:46;;;;;;;0.40;0.30;;;11.60;99.90;;;;;;4978231;28;20508;-80
2023/11/08 10:52:14;;;;;;;0.67;0.47;;;11.50;99.90;;;;;;5000371;28;20469;-79
2023/11/08 10:54:42;;;;;;;0.40;0.30;;;11.70;99.90;;;;;;4977908;28;20479;-80
2023/11/08 10:57:12;;;;;;;0.53;0.40;;;11.70;99.90;;;;;;4977778;28;21000;-80
2023/11/08 10:59:42;;;;;;;2.40;0.30;;;11.80;99.90;;;;;;4978165;28;20434;-80
2023/11/08 11:02:23;;;;;;;0.40;0.40;;;12.00;99.90;;;;;;4977889;28;20476;-80
2023/11/08 11:04:59;;;;;;;0.60;0.40;;;12.10;99.90;;;;;;4977639;28;20437;-80
2023/11/08 11:07:28;;;;;;;0.33;0.30;;;12.10;99.90;;;;;;4978230;28;20555;-80
2023/11/08 11:09:56;;;;;;;0.30;0.30;;;12.10;99.90;;;;;;4978338;28;20950;-81
2023/11/08 11:12:33;;;;;;;0.47;0.30;;;12.10;99.90;;;;;;4978444;28;20452;-80
2023/11/08 11:15:08;;;;;;;0.30;0.30;;;12.30;99.90;;;;;;4979393;28;20445;-82
2023/11/08 11:17:42;;;;;;;0.47;0.40;;;12.30;99.90;;;;;;4979547;28;20469;-79
2023/11/08 11:20:14;;;;;;;0.40;0.40;;;12.20;99.90;;;;;;4977706;28;20497;-79
2023/11/08 11:22:43;;;;;;;0.40;0.30;;;12.20;99.90;;;;;;4977228;28;20473;-79
2023/11/08 11:25:12;;;;;;;0.30;0.30;;;12.00;99.90;;;;;;4977089;28;20949;-78
2023/11/08 11:27:46;;;;;;;0.30;0.20;;;11.90;99.90;;;;;;4976728;28;20516;-78
2023/11/08 11:30:27;;;;;;;0.30;0.30;;;11.70;99.90;;;;;;4977064;28;20822;-78
2023/11/08 11:32:54;;;;;;;0.60;0.30;;;11.60;99.90;;;;;;4976957;28;20493;-78
2023/11/08 11:36:00;;;;;;;0.30;0.30;;;11.70;99.90;;;;;;4976656;28;20448;-78
2023/11/08 11:38:28;;;;;;;0.30;0.30;;;11.80;99.90;;;;;;4976840;28;20470;-77
2023/11/08 11:41:21;;;;;;;0.40;0.30;;;12.00;99.90;;;;;;4976768;28;20452;-78
2023/11/08 11:43:51;;;;;;;0.40;0.30;;;12.00;99.90;;;;;;4976337;28;20492;-78
2023/11/08 11:46:24;;;;;;;0.30;0.30;;;12.10;99.90;;;;;;4977306;28;20430;-77
2023/11/08 11:49:10;;;;;;;0.30;0.30;;;12.20;99.90;;;;;;4976456;28;20457;-79
2023/11/08 11:51:39;;;;;;;0.60;0.30;;;12.20;99.90;;;;;;4976436;28;20455;-78
2023/11/08 11:54:07;;;;;;;0.30;0.30;;;12.20;99.90;;;;;;4976217;28;20853;-78
2023/11/08 11:56:35;;;;;;;0.30;0.30;;;12.30;99.90;;;;;;4976352;28;20449;-78
2023/11/08 11:59:02;;;;;;;0.50;0.40;;;12.40;99.90;;;;;;4976253;28;20437;-78
2023/11/08 12:01:29;;;;;;;0.50;0.30;;;12.40;99.90;;;;;;4976271;28;20438;-78
2023/11/08 12:03:58;;;;;;;0.37;0.30;;;12.40;99.90;;;;;;4976074;28;20480;-79
2023/11/08 12:06:25;;;;;;;0.30;0.30;;;12.30;99.90;;;;;;4978896;28;20446;-78
2023/11/08 12:08:52;;;;;;;14.67;0.43;;;12.30;99.90;;;;;;4979409;28;20477;-79
2023/11/08 12:11:20;;;;;;;0.60;0.30;;;12.30;99.90;;;;;;4976368;28;20445;-78
2023/11/08 12:13:50;;;;;;;0.30;0.30;;;12.10;99.90;;;;;;4977205;28;20450;-79
2023/11/08 12:16:17;;;;;;;0.30;0.30;;;12.00;99.90;;;;;;4977257;28;20434;-78
2023/11/08 12:18:45;;;;;;;0.30;0.30;;;11.90;99.90;;;;;;4976172;28;20465;-83
2023/11/08 12:21:13;;;;;;;0.30;0.30;;;11.70;99.90;;;;;;4976400;28;20445;-80
2023/11/08 12:23:41;;;;;;;0.30;0.30;;;11.60;99.90;;;;;;4976315;28;20493;-80
2023/11/08 12:26:08;;;;;;;0.40;0.40;;;11.50;99.90;;;;;;4976296;28;20449;-80
2023/11/08 12:28:36;;;;;;;0.40;0.30;;;11.50;99.90;;;;;;4975553;28;20485;-80
2023/11/08 12:31:07;;;;;;;0.53;0.47;;;11.50;99.90;;;;;;4976586;28;20451;-80
2023/11/08 12:33:34;;;;;;;0.37;0.30;;;11.50;99.90;;;;;;4976386;28;20445;-83
2023/11/08 12:36:02;;;;;;;0.30;0.30;;;11.40;99.90;;;;;;4976633;28;20449;-85
2023/11/08 12:38:29;;;;;;;0.37;0.33;;;11.40;99.90;;;;;;4976800;28;20469;-82
2023/11/08 12:41:03;;;;;;;0.40;0.30;;;11.40;99.90;;;;;;4977024;28;20434;-82
2023/11/08 12:43:31;;;;;;;0.30;0.30;;;11.40;99.90;;;;;;4978945;28;20477;-84
2023/11/08 12:46:03;;;;;;;0.30;0.30;;;11.50;99.90;;;;;;4978571;28;20453;-80
2023/11/08 12:48:32;;;;;;;0.30;0.30;;;11.60;99.90;;;;;;4976397;28;20477;-81
2023/11/08 12:51:05;;;;;;;0.40;0.40;;;11.70;99.90;;;;;;4976300;28;20434;-81
2023/11/08 12:53:32;;;;;;;0.30;0.20;;;11.80;99.90;;;;;;4976903;28;20449;-82
2023/11/08 12:56:00;;;;;;;0.30;0.27;;;11.80;99.90;;;;;;4976505;28;20454;-81
2023/11/08 12:58:28;;;;;;;0.30;0.30;;;11.70;99.90;;;;;;4979488;28;20469;-81
2023/11/08 13:00:55;;;;;;;0.40;0.30;;;11.60;99.90;;;;;;4995037;28;20442;-80
2023/11/08 13:03:26;;;;;;;1.07;0.50;;;11.50;99.90;;;;;;4975102;28;20981;-80
2023/11/08 13:05:54;;;;;;;0.33;0.30;;;11.50;99.90;;;;;;4975427;28;20532;-80
2023/11/08 13:08:21;;;;;;;0.30;0.30;;;11.50;99.90;;;;;;4975632;28;20480;-81
2023/11/08 13:10:47;;;;;;;0.30;0.30;;;11.50;99.90;;;;;;4975720;28;20492;-80
2023/11/08 13:13:14;;;;;;;0.40;0.30;;;11.50;99.90;;;;;;4975613;28;20484;-82
2023/11/08 13:15:41;;;;;;;0.90;0.63;;;11.50;99.90;;;;;;4976010;28;20488;-81
2023/11/08 13:18:08;;;;;;;0.37;0.30;;;11.40;99.90;;;;;;4975906;28;20465;-81
2023/11/08 13:20:37;;;;;;;2.50;0.40;;;11.40;99.90;;;;;;4975402;28;20437;-81
2023/11/08 13:23:04;;;;;;;0.30;0.30;;;11.30;99.90;;;;;;4975341;28;20930;-81
2023/11/08 13:25:31;;;;;;;1.07;0.40;;;11.30;99.90;;;;;;4975629;28;20434;-81
2023/11/08 13:27:57;;;;;;;0.40;0.30;;;11.30;99.90;;;;;;4975003;28;21017;-81
2023/11/08 13:30:24;;;;;;;0.40;0.40;;;11.20;99.90;;;;;;4975502;28;20464;-83
2023/11/08 13:32:51;;;;;;;0.50;0.33;;;11.20;99.90;;;;;;4975226;28;20473;-81
2023/11/08 13:35:18;;;;;;;0.30;0.30;;;11.20;99.90;;;;;;4975300;28;20536;-81
2023/11/08 13:37:46;;;;;;;0.50;0.30;;;11.10;99.90;;;;;;4975233;28;20475;-81
2023/11/08 13:40:13;;;;;;;0.30;0.30;;;11.20;99.90;;;;;;4975528;28;20572;-81
2023/11/08 13:42:40;;;;;;;0.30;0.20;;;11.20;99.90;;;;;;4975535;28;20448;-83
2023/11/08 13:45:08;;;;;;;0.40;0.30;;;11.10;99.90;;;;;;4975851;28;20461;-81
2023/11/08 13:47:36;;;;;;;0.40;0.30;;;11.10;99.90;;;;;;4975086;28;20469;-81
2023/11/08 13:50:05;;;;;;;0.97;0.50;;;11.10;99.90;;;;;;4977371;28;20548;-80
2023/11/08 13:52:32;;;;;;;0.40;0.30;;;11.20;99.90;;;;;;4975370;28;20485;-81
2023/11/08 13:55:02;;;;;;;0.30;0.30;;;11.10;99.90;;;;;;4974963;28;20528;-81
2023/11/08 13:57:29;;;;;;;1.13;0.93;;;11.10;99.90;;;;;;4974947;28;20480;-81
2023/11/08 13:59:56;;;;;;;0.43;0.43;;;11.00;99.90;;;;;;4975006;28;20454;-81
2023/11/08 14:02:22;;;;;;;0.40;0.30;;;11.10;99.90;;;;;;4975355;28;20456;-81
2023/11/08 14:04:49;;;;;;;0.30;0.30;;;10.90;99.90;;;;;;4975189;28;20504;-81
2023/11/08 14:07:16;;;;;;;0.30;0.30;;;10.90;99.90;;;;;;4974903;28;20473;-81
2023/11/08 14:09:43;;;;;;;0.53;0.30;;;10.90;99.90;;;;;;4975479;28;20453;-81
2023/11/08 14:12:11;;;;;;;0.30;0.27;;;10.90;99.90;;;;;;4974801;28;20444;-81
2023/11/08 14:14:38;;;;;;;0.40;0.33;;;11.00;99.90;;;;;;4975017;28;20663;-81
2023/11/08 14:17:05;;;;;;;0.50;0.30;;;11.00;99.90;;;;;;4979109;28;20493;-81
2023/11/08 14:19:32;;;;;;;0.40;0.30;;;10.90;99.90;;;;;;4980508;28;20852;-81
2023/11/08 14:21:58;;;;;;;1.20;0.30;;;10.90;99.90;;;;;;4979700;28;20453;-81
2023/11/08 14:24:25;;;;;;;0.50;0.30;;;10.90;99.90;;;;;;4979358;28;20848;-81
2023/11/08 14:26:53;;;;;;;1.13;0.50;;;10.90;99.90;;;;;;4978669;28;20457;-81
2023/11/08 14:29:21;;;;;;;0.40;0.30;;;11.00;99.90;;;;;;4979364;28;20492;-81
2023/11/08 14:31:48;;;;;;;0.77;0.40;;;10.90;99.90;;;;;;4979993;28;20457;-86
2023/11/08 14:34:15;;;;;;;0.40;0.40;;;10.80;99.90;;;;;;4978884;28;20454;-81
2023/11/08 14:36:41;;;;;;;0.40;0.30;;;10.80;99.90;;;;;;4978986;28;20942;-81
2023/11/08 14:39:09;;;;;;;0.50;0.47;;;10.60;99.90;;;;;;4978716;28;20785;-80
2023/11/08 14:41:36;;;;;;;0.40;0.40;;;10.60;99.90;;;;;;4979015;28;20441;-81
2023/11/08 14:44:03;;;;;;;0.40;0.40;;;10.50;99.90;;;;;;4978573;28;20851;-81
2023/11/08 14:46:31;;;;;;;0.40;0.40;;;10.50;99.90;;;;;;4979107;28;20449;-82
2023/11/08 14:48:58;;;;;;;0.50;0.40;;;10.50;99.90;;;;;;4978501;28;20453;-81
2023/11/08 14:51:25;;;;;;;0.30;0.30;;;10.50;99.90;;;;;;4978678;28;20454;-81
2023/11/08 14:53:52;;;;;;;0.50;0.40;;;10.50;99.90;;;;;;4978958;28;20472;-81
2023/11/08 14:56:19;;;;;;;0.30;0.30;;;10.50;99.90;;;;;;4978532;28;20453;-81
2023/11/08 14:58:47;;;;;;;0.30;0.30;;;10.50;99.90;;;;;;4978070;28;20465;-82
2023/11/08 15:01:13;;;;;;;6.47;0.50;;;10.50;99.90;;;;;;4977815;28;20951;-81
2023/11/08 15:03:41;;;;;;;0.50;0.40;;;10.50;99.90;;;;;;4977565;28;20491;-81
2023/11/08 15:06:11;;;;;;;0.50;0.33;;;10.50;99.90;;;;;;4978375;28;20480;-81
2023/11/08 15:08:38;;;;;;;0.30;0.30;;;10.50;99.90;;;;;;4996210;28;20448;-81
2023/11/08 15:11:05;;;;;;;0.30;0.30;;;10.40;99.90;;;;;;4980792;28;20451;-80
2023/11/08 15:13:32;;;;;;;0.40;0.40;;;10.40;99.90;;;;;;4977504;28;20441;-81
2023/11/08 15:15:58;;;;;;;0.40;0.40;;;10.40;99.90;;;;;;4977378;28;20437;-81
2023/11/08 15:18:27;;;;;;;0.40;0.30;;;10.40;99.90;;;;;;4977182;28;20465;-81
2023/11/08 15:20:55;;;;;;;0.30;0.30;;;10.40;99.90;;;;;;4977446;28;20457;-81
2023/11/08 15:23:22;;;;;;;0.93;0.83;;;10.30;99.90;;;;;;4977362;28;20492;-81
2023/11/08 15:25:49;;;;;;;0.57;0.27;;;10.30;99.90;;;;;;4977065;28;20445;-80
2023/11/08 15:28:16;;;;;;;1.07;0.50;;;10.30;99.90;;;;;;4976706;28;20488;-81
2023/11/08 15:33:10;;;;;;;0.40;0.40;;;10.30;99.90;;;;;;4944954;29;20494;-82
2023/11/08 15:35:37;;;;;;;0.40;0.40;;;10.30;99.90;;;;;;4946970;29;20821;-82
2023/11/08 15:38:05;;;;;;;1.13;0.43;;;10.20;99.90;;;;;;4947071;29;20443;-82
2023/11/08 15:40:32;;;;;;;0.40;0.30;;;10.30;99.90;;;;;;4946583;29;20840;-82
2023/11/08 15:42:59;;;;;;;0.63;0.40;;;10.20;99.90;;;;;;4945706;29;20454;-82
2023/11/08 15:45:26;;;;;;;0.43;0.40;;;10.10;99.90;;;;;;4946042;29;20474;-82
2023/11/08 15:47:54;;;;;;;0.77;0.50;;;10.00;99.90;;;;;;4945605;29;20451;-82
2023/11/08 15:50:21;;;;;;;0.30;0.30;;;9.90;99.90;;;;;;4944844;29;21011;-82
2023/11/08 15:52:47;;;;;;;0.40;0.33;;;10.70;99.90;;;;;;4944525;29;20457;-82
2023/11/08 15:55:16;;;;;;;0.40;0.40;;;9.80;99.90;;;;;;4944518;29;20451;-82
2023/11/08 15:57:43;;;;;;;0.30;0.30;;;9.60;99.90;;;;;;4944642;29;20460;-82
2023/11/08 16:00:12;;;;;;;0.50;0.33;;;9.60;99.90;;;;;;4944458;29;20447;-82
2023/11/08 16:02:40;;;;;;;0.30;0.30;;;9.50;99.90;;;;;;4945568;29;20443;-82
2023/11/08 16:05:09;;;;;;;0.30;0.30;;;9.40;99.90;;;;;;4945534;29;20852;-82
2023/11/08 16:07:35;;;;;;;0.40;0.30;;;9.40;99.90;;;;;;4946422;29;20886;-82
2023/11/08 16:10:02;;;;;;;0.37;0.30;;;9.30;99.90;;;;;;4945546;29;20451;-82
2023/11/08 16:12:30;;;;;;;1.07;0.50;;;9.20;99.90;;;;;;4947718;29;20463;-81
2023/11/08 16:14:58;;;;;;;0.40;0.30;;;9.20;99.90;;;;;;4946434;29;20462;-80
2023/11/08 16:17:25;;;;;;;0.40;0.30;;;9.30;99.90;;;;;;4944938;29;20459;-80
2023/11/08 16:19:51;;;;;;;0.50;0.47;;;9.00;99.90;;;;;;4945335;29;20451;-80
2023/11/08 16:22:20;;;;;;;0.30;0.30;;;9.00;99.90;;;;;;4944109;29;20475;-81
2023/11/08 16:24:46;;;;;;;0.33;0.30;;;8.90;99.90;;;;;;4944436;29;20967;-82
2023/11/08 16:27:13;;;;;;;0.40;0.30;;;8.90;99.90;;;;;;4944843;29;20451;-80
2023/11/08 16:29:44;;;;;;;0.40;0.33;;;8.80;99.90;;;;;;4944012;29;20795;-80
2023/11/08 16:32:11;;;;;;;0.40;0.40;;;8.80;99.90;;;;;;4943528;29;20498;-80
2023/11/08 16:34:37;;;;;;;0.70;0.30;;;8.70;99.90;;;;;;4944188;29;20498;-83
2023/11/08 16:37:04;;;;;;;1.00;0.53;;;8.70;99.90;;;;;;4942497;29;20490;-81
2023/11/08 16:39:31;;;;;;;0.40;0.40;;;8.60;99.90;;;;;;4941223;29;20435;-81
2023/11/08 16:41:58;;;;;;;0.30;0.30;;;8.60;99.90;;;;;;4941539;29;20460;-81
2023/11/08 16:44:25;;;;;;;2.67;0.40;;;8.60;99.90;;;;;;4945899;29;20514;-81
2023/11/08 16:46:53;;;;;;;0.90;0.57;;;9.50;99.90;;;;;;4951447;29;20451;-82
2023/11/08 16:49:21;;;;;;;0.97;0.50;;;8.40;99.90;;;;;;4949427;29;20454;-81
2023/11/08 16:51:48;;;;;;;2.60;0.70;;;9.70;99.90;;;;;;4952387;29;20467;-83
2023/11/08 16:54:15;;;;;;;0.70;0.43;;;8.30;99.90;;;;;;4952029;29;20455;-82
2023/11/08 16:56:42;;;;;;;11.83;1.37;;;;;;;;;;4952318;29;20458;-82
2023/11/08 16:59:09;;;;;;;1.17;0.63;;;8.30;99.90;;;;;;4951722;29;20470;-82
2023/11/08 17:01:36;;;;;;;2.53;0.77;;;8.20;99.90;;;;;;4946488;29;20497;-82
2023/11/08 17:04:05;;;;;;;1.90;0.80;;;8.20;99.90;;;;;;4944907;29;21094;-81
2023/11/08 17:06:32;;;;;;;2.60;0.70;;;8.20;99.90;;;;;;4944457;29;20817;-81
2023/11/08 17:08:59;;;;;;;4.73;0.70;;;8.20;99.90;;;;;;4943393;29;20815;-83
2023/11/08 17:11:26;;;;;;;0.93;0.60;;;8.10;99.90;;;;;;4943442;29;20474;-81
2023/11/08 17:13:53;;;;;;;0.83;0.37;;;;;;;;;;4942098;29;20455;-81
2023/11/08 17:16:21;;;;;;;1.87;0.97;;;8.00;99.90;;;;;;4941258;29;20455;-81
2023/11/08 17:18:48;;;;;;;0.40;0.40;;;8.00;99.90;;;;;;4941084;29;20491;-81
2023/11/08 17:21:16;;;;;;;7.40;0.50;;;7.90;99.90;;;;;;4940280;29;20477;-81
2023/11/08 17:23:44;;;;;;;0.60;0.37;;;7.90;99.90;;;;;;4939685;29;20539;-81
2023/11/08 17:26:11;;;;;;;0.50;0.50;;;7.80;99.90;;;;;;4939274;29;20952;-81
2023/11/08 17:28:39;;;;;;;2.33;1.13;;;7.80;99.90;;;;;;4938602;29;20439;-80
2023/11/08 17:31:05;;;;;;;0.60;0.40;;;7.80;99.90;;;;;;4938721;29;20503;-81
2023/11/08 17:33:32;;;;;;;0.60;0.40;;;7.70;99.90;;;;;;4937739;29;20416;-81
2023/11/08 17:35:59;;;;;;;1.20;0.60;;;7.70;99.90;;;;;;4937635;29;20447;-81
2023/11/08 17:38:27;;;;;;;0.80;0.80;;;7.60;99.90;;;;;;4937320;29;20442;-80
2023/11/08 17:40:57;;;;;;;0.57;0.57;;;7.60;99.90;;;;;;4936769;29;20451;-81
2023/11/08 17:43:24;;;;;;;0.70;0.50;;;7.60;99.90;;;;;;4938453;29;20447;-81
2023/11/08 17:45:51;;;;;;;0.40;0.40;;;7.60;99.90;;;;;;4937302;29;20489;-81
2023/11/08 17:48:17;;;;;;;5.37;1.53;;;7.70;99.90;;;;;;4939251;29;20458;-81
2023/11/08 17:50:44;;;;;;;5.73;1.63;;;7.60;99.90;;;;;;4942206;29;20477;-81
2023/11/08 17:53:12;;;;;;;1.00;0.70;;;7.70;99.90;;;;;;4945626;29;20451;-81
2023/11/08 17:55:42;;;;;;;2.33;1.50;;;7.60;99.90;;;;;;4944724;29;20471;-80
2023/11/08 17:58:10;;;;;;;2.00;0.63;;;7.60;99.90;;;;;;4943663;29;20506;-80
2023/11/08 18:00:37;;;;;;;0.50;0.40;;;7.70;99.90;;;;;;4944574;29;20498;-80
2023/11/08 18:03:04;;;;;;;2.40;1.07;;;7.60;99.90;;;;;;4943834;29;20451;-81
2023/11/08 18:05:30;;;;;;;6.17;1.10;;;7.70;99.90;;;;;;4943988;29;20577;-81
2023/11/08 18:07:58;;;;;;;2.43;0.90;;;7.70;99.90;;;;;;4943640;29;20470;-80
2023/11/08 18:10:25;;;;;;;3.17;0.70;;;7.60;99.90;;;;;;4943537;29;20461;-81
2023/11/08 18:12:54;;;;;;;0.63;0.63;;;7.60;99.90;;;;;;4944209;29;20447;-81
2023/11/08 18:15:21;;;;;;;1.20;0.97;;;7.60;99.90;;;;;;4942928;29;20451;-81
2023/11/08 18:17:51;;;;;;;0.60;0.60;;;7.50;99.90;;;;;;4944204;29;20455;-81
2023/11/08 18:20:18;;;;;;;1.10;0.57;;;7.50;99.90;;;;;;4944434;29;20553;-80
2023/11/08 18:22:44;;;;;;;1.33;0.67;;;7.40;99.90;;;;;;4945266;29;20479;-80
2023/11/08 18:25:11;;;;;;;0.60;0.60;;;7.40;99.90;;;;;;4943443;29;20482;-80
2023/11/08 18:27:38;;;;;;;0.67;0.60;;;7.40;99.90;;;;;;4942868;29;20451;-80
2023/11/08 18:30:08;;;;;;;2.17;0.90;;;7.40;99.90;;;;;;4943102;29;20443;-80
2023/11/08 18:32:35;;;;;;;0.70;0.70;;;7.40;99.90;;;;;;4942938;29;20849;-80